Stations météo

réclame
Mon MeteoGroup
Monte S. Angelo, Italie (16258): Température de l'air & dewpoint: 08.08.2018 19:00:00 - 14.08.2018 19:00:00 (CEST)Monte S. Angelo, Italie (16258): Vitesse du vent: 08.08.2018 19:00:00 - 14.08.2018 19:00:00 (CEST)Monte S. Angelo, Italie (16258): Direction du vent: 08.08.2018 19:00:00 - 14.08.2018 19:00:00 (CEST)Monte S. Angelo, Italie (16258): visibility: 08.08.2018 19:00:00 - 14.08.2018 19:00:00 (CEST)
Date & Time tt [°C] td [°C] ff [km/h] ff [knt] dd vv [km]
14.08.2018 19:00:00 19,4 11,9 18 10 N -
14.08.2018 18:00:00 19,0 10,3 8 4 W 10
14.08.2018 17:00:00 19,0 13,2 5 3 SE 10
14.08.2018 16:00:00 19,0 15,1 26 14 WNW 10
14.08.2018 15:00:00 24,0 15,0 18 10 NNE 10
14.08.2018 14:00:00 27,0 13,4 16 9 SSE 15
14.08.2018 13:00:00 25,6 14,4 11 6 SSE 20
14.08.2018 12:00:00 25,0 15,9 9 5 SSE 20
14.08.2018 11:00:00 24,0 16,8 8 4 SSE 20
14.08.2018 10:00:00 22,2 14,1 5 3 SSE 20
14.08.2018 09:00:00 21,8 12,7 5 3 NNE 20
14.08.2018 08:00:00 22,2 12,2 4 2 NE 15
14.08.2018 07:00:00 22,0 10,8 4 2 NNW 15
14.08.2018 06:00:00 22,6 10,7 8 4 NW 15
14.08.2018 05:00:00 23,0 10,8 5 3 ENE 20
14.08.2018 04:00:00 23,2 11,3 4 2 NE 20
14.08.2018 03:00:00 23,4 11,8 4 2 NNE 20
14.08.2018 02:00:00 23,0 12,0 4 2 NW 20
14.08.2018 01:00:00 22,8 11,2 8 4 WNW 20
14.08.2018 00:00:00 23,2 11,9 9 5 W 20
13.08.2018 23:00:00 23,4 12,4 8 4 S 20
13.08.2018 22:00:00 23,2 13,7 9 5 SSE 20
13.08.2018 21:00:00 23,0 14,8 8 4 SE 20
13.08.2018 20:00:00 23,0 14,3 5 3 ESE 20
13.08.2018 19:00:00 24,2 20,3 5 3 SSE 20
13.08.2018 18:00:00 24,8 17,5 5 3 SSE 20
13.08.2018 17:00:00 25,6 15,3 8 4 S 20
13.08.2018 16:00:00 26,6 12,7 13 7 SSE 20
13.08.2018 15:00:00 26,8 13,9 15 8 SSE 20
13.08.2018 14:00:00 26,6 14,0 11 6 SSE 20
13.08.2018 13:00:00 26,0 13,5 16 9 SSE 20
13.08.2018 12:00:00 25,6 13,1 9 5 SSE 20
13.08.2018 11:00:00 25,0 13,2 11 6 S 20
13.08.2018 10:00:00 24,8 11,0 8 4 SSE 20
13.08.2018 09:00:00 24,2 13,4 4 2 SSE 20
13.08.2018 08:00:00 22,0 11,4 5 3 S 15
13.08.2018 07:00:00 22,0 10,5 8 4 S 15
13.08.2018 06:00:00 22,0 10,2 8 4 S 15
13.08.2018 05:00:00 22,4 7,4 8 4 S 15
13.08.2018 04:00:00 22,6 5,5 11 6 S 15
13.08.2018 03:00:00 22,4 5,4 8 4 S 15
13.08.2018 02:00:00 22,8 5,7 9 5 S 15
13.08.2018 01:00:00 23,0 7,1 8 4 S 15
13.08.2018 00:00:00 23,0 5,9 5 3 SE 15
12.08.2018 23:00:00 23,0 10,1 4 2 ESE 15
12.08.2018 22:00:00 23,2 10,3 4 2 SE 15
12.08.2018 21:00:00 23,0 10,1 4 2 ENE 15
12.08.2018 20:00:00 24,2 9,4 4 2 NW 15
12.08.2018 19:00:00 25,4 10,8 11 6 N 15
12.08.2018 18:00:00 26,0 10,6 8 4 N 15
12.08.2018 17:00:00 26,6 12,7 9 5 N 15
12.08.2018 16:00:00 24,8 13,7 15 8 N 15
12.08.2018 15:00:00 27,0 11,5 8 4 NNE 15
12.08.2018 14:00:00 26,2 10,0 9 5 SSE 20
12.08.2018 13:00:00 26,4 11,4 8 4 S 20
12.08.2018 12:00:00 26,0 10,2 9 5 SSE 20
12.08.2018 11:00:00 25,0 9,7 5 3 WNW 20
12.08.2018 10:00:00 24,0 8,8 8 4 WNW 20
12.08.2018 09:00:00 22,8 10,6 8 4 NW 20
12.08.2018 08:00:00 22,2 9,4 5 3 NW 20
12.08.2018 07:00:00 21,8 9,0 9 5 WNW 20
12.08.2018 06:00:00 22,4 8,9 8 4 WNW 20
12.08.2018 05:00:00 23,4 8,3 8 4 WSW 20
12.08.2018 04:00:00 23,2 8,1 8 4 WSW 20
12.08.2018 03:00:00 23,0 7,9 11 6 W 20
12.08.2018 02:00:00 23,2 8,1 13 7 W 20
12.08.2018 01:00:00 22,6 7,6 15 8 WNW 20
12.08.2018 00:00:00 22,4 7,4 13 7 WNW 20
11.08.2018 23:00:00 22,4 7,4 13 7 NW 20
11.08.2018 22:00:00 22,2 8,7 11 6 WNW 20
11.08.2018 21:00:00 22,6 9,0 11 6 NNW 20
11.08.2018 20:00:00 24,0 8,4 9 5 WNW 20
11.08.2018 19:00:00 25,2 9,5 8 4 NNW 20
11.08.2018 18:00:00 25,8 10,0 9 5 ESE 20
11.08.2018 17:00:00 26,0 9,8 13 7 NW 20
11.08.2018 16:00:00 27,0 10,7 13 7 WNW 20
11.08.2018 15:00:00 28,0 12,0 5 3 ESE 20
11.08.2018 14:00:00 28,0 11,6 5 3 WNW 20
11.08.2018 13:00:00 27,0 11,9 4 2 NW 20
11.08.2018 12:00:00 26,0 12,8 8 4 S 20
11.08.2018 11:00:00 25,0 13,5 8 4 ESE 20
11.08.2018 10:00:00 23,0 12,9 9 5 ESE 20
11.08.2018 09:00:00 22,8 12,4 8 4 NW 20
11.08.2018 08:00:00 22,6 12,3 8 4 NW 20
11.08.2018 07:00:00 22,0 11,7 9 5 NNW 20
11.08.2018 06:00:00 22,0 11,7 8 4 NW 10
11.08.2018 05:00:00 22,2 10,4 11 6 NW 10
11.08.2018 04:00:00 22,2 10,4 9 5 NW 10
11.08.2018 03:00:00 22,6 11,4 18 10 S 10
11.08.2018 02:00:00 22,2 11,0 9 5 WNW 10
11.08.2018 01:00:00 23,0 12,6 11 6 WNW 10
11.08.2018 00:00:00 23,0 13,8 9 5 WNW 10
10.08.2018 23:00:00 22,6 15,5 9 5 WNW 10
10.08.2018 22:00:00 21,4 15,7 13 7 WNW 10
10.08.2018 21:00:00 22,0 15,1 16 9 NW 10
10.08.2018 20:00:00 22,8 14,6 13 7 SW 20
10.08.2018 19:00:00 24,6 9,0 11 6 WNW 20
10.08.2018 18:00:00 25,4 12,6 8 4 NW 15
10.08.2018 17:00:00 28,8 13,9 4 2 ENE 15
10.08.2018 16:00:00 28,0 15,7 0 0 N 15
10.08.2018 15:00:00 27,0 15,7 4 2 N 15
10.08.2018 14:00:00 26,4 15,1 8 4 NNW 15
10.08.2018 13:00:00 27,0 14,4 9 5 SSE 20
10.08.2018 12:00:00 26,4 14,2 5 3 S 20
10.08.2018 11:00:00 26,2 13,3 8 4 S 20
10.08.2018 10:00:00 26,0 13,2 0 0 N 20
10.08.2018 09:00:00 25,0 11,9 0 0 N 20
10.08.2018 08:00:00 24,4 12,4 2 1 N 15
10.08.2018 07:00:00 23,2 12,8 4 2 N 20
10.08.2018 06:00:00 23,2 12,2 4 2 NE 20
10.08.2018 05:00:00 23,2 13,1 4 2 WNW 20
10.08.2018 04:00:00 23,2 12,8 5 3 WNW 20
10.08.2018 03:00:00 23,8 8,7 5 3 WNW 20
10.08.2018 02:00:00 23,8 8,7 5 3 WNW 20
10.08.2018 01:00:00 24,0 8,8 0 0 N 20
10.08.2018 00:00:00 24,0 9,6 0 0 N 20
09.08.2018 23:00:00 23,8 11,2 4 2 W 20
09.08.2018 22:00:00 24,2 11,2 4 2 SSE 20
09.08.2018 21:00:00 23,2 15,5 2 1 S 15
09.08.2018 20:00:00 25,0 15,3 4 2 ESE 15
09.08.2018 19:00:00 26,0 15,7 13 7 NNE 15
09.08.2018 18:00:00 27,2 13,2 4 2 SE 15
09.08.2018 17:00:00 26,4 12,5 4 2 WSW 15
09.08.2018 16:00:00 27,0 9,4 11 6 SSE 15
09.08.2018 15:00:00 27,4 11,4 9 5 S 20
09.08.2018 14:00:00 26,6 13,4 9 5 S 20
09.08.2018 13:00:00 26,6 13,4 11 6 S 20
09.08.2018 12:00:00 26,0 12,8 8 4 S 20
09.08.2018 11:00:00 25,4 10,5 8 4 SSE 20
09.08.2018 10:00:00 25,0 8,9 4 2 SSE 20
09.08.2018 09:00:00 24,8 8,3 4 2 ENE 20
09.08.2018 08:00:00 23,8 7,0 4 2 E 15
09.08.2018 07:00:00 22,6 7,6 5 3 ENE 15
09.08.2018 06:00:00 22,2 9,4 9 5 ENE 15
09.08.2018 05:00:00 22,6 9,0 8 4 NNE 20
09.08.2018 04:00:00 22,4 8,5 8 4 N 20
09.08.2018 03:00:00 22,8 9,2 11 6 NNE 20
09.08.2018 02:00:00 23,0 8,7 8 4 NNE 20
09.08.2018 01:00:00 23,6 8,9 4 2 E 20
09.08.2018 00:00:00 23,4 9,0 4 2 S 20
08.08.2018 23:00:00 23,4 8,3 4 2 SSW 15
08.08.2018 22:00:00 24,0 8,4 8 4 WNW 15
08.08.2018 21:00:00 24,2 7,8 4 2 SSW 20
08.08.2018 20:00:00 25,0 7,6 4 2 SSE 20
08.08.2018 19:00:00 25,2 7,8 5 3 ENE 20

tt = Température de l'air
td = dewpoint
ff = Vitesse du vent
dd = Direction du vent
vv = visibility

stations d'obs. à proximité